Airfield :
LOGIN :

Register | Disclaimer

   EN    FR    IT 

 










Legend :    VFR   Marginal VFR   IFR   Intensive IFR   Very Intensive IFR
Visi :
Ceiling :
>= 8 km
>= 3000ft
5 to 8 km
1000 to 3000 ft
1500m to 5 km
500 to 1000 ft
800 to 1500m
200 to 500 ft
< 800m
< 200 ft
Symbols :   Thunderstorms  Fog  Heavy snow  Heavy precipitations  Wind > 20 kt
SIGMETs :     Misc.  Thunderstorms  Icing  Turbulence  Mountain Waves  Volcanic Ashes






- Airport Elevation : 458 ft


LFSI - St-Dizier

CURRENT METAR :
  • 250830Z AUTO 15002KT 2800 BR NSC M02/M03 Q1033

EXPIRED METARs :
  • 250800Z AUTO 10001KT 2200 1400 R11/2000D BR NSC M03/M03 Q1032
  • 250730Z AUTO 10002KT 2300 BR NSC M02/M03 Q1032
  • 250700Z AUTO 11003KT 4300 BR NSC M02/M02 Q1032
  • 250630Z AUTO 11004KT 3300 BR NSC M03/M04 Q1032
  • 250600Z AUTO 10003KT 4500 BR NSC M02/M02 Q1032

TAF TAF LFSI
Valid from the 25 at 09:00 until the 26 at 09:00 UTC


250800Z 2509/2609 VRB03KT 3000 BR NSC
TEMPO 2509/2512 SCT004
BECMG 2512/2514 CAVOK
BECMG 2517/2519 3000 BR BKN004



MET'MAP, your aeronautical weather chart ! - Copyright ORBIFLY December 2007 - Disclaimer

ORBIFLY MET'MAP TEAM :

Programming & Development : Alexandra Zaïnal
Original concept : Baudouin d'Aumeries
Technical & hardware support : Manuel Goepfert
Assistance : Marc-Olivier Méhu

Contact : metmap@orbifly.com




SOURCES & CREDITS :

   NOAA